sensor_id;sensor_type;location;lat;lon;timestamp;P1;durP1;ratioP1;P2;durP2;ratioP2
23001;SDS011;11667;51.706;4.856;2024-03-29T00:01:38;0.72;;;0.50;;
23001;SDS011;11667;51.706;4.856;2024-03-29T00:04:07;2.00;;;0.93;;
23001;SDS011;11667;51.706;4.856;2024-03-29T00:06:37;2.92;;;1.05;;
23001;SDS011;11667;51.706;4.856;2024-03-29T00:09:06;2.25;;;1.20;;
23001;SDS011;11667;51.706;4.856;2024-03-29T00:11:35;3.47;;;1.47;;
23001;SDS011;11667;51.706;4.856;2024-03-29T00:14:04;5.45;;;1.10;;
23001;SDS011;11667;51.706;4.856;2024-03-29T00:16:34;4.50;;;0.90;;
23001;SDS011;11667;51.706;4.856;2024-03-29T00:19:03;1.87;;;1.00;;
23001;SDS011;11667;51.706;4.856;2024-03-29T00:21:32;4.97;;;1.57;;
23001;SDS011;11667;51.706;4.856;2024-03-29T00:24:01;2.17;;;0.75;;
23001;SDS011;11667;51.706;4.856;2024-03-29T00:26:31;3.83;;;0.90;;
23001;SDS011;11667;51.706;4.856;2024-03-29T00:29:00;5.53;;;0.90;;
23001;SDS011;11667;51.706;4.856;2024-03-29T00:31:30;7.37;;;1.40;;
23001;SDS011;11667;51.706;4.856;2024-03-29T00:33:59;5.72;;;1.50;;
23001;SDS011;11667;51.706;4.856;2024-03-29T00:36:28;1.70;;;0.85;;
23001;SDS011;11667;51.706;4.856;2024-03-29T00:38:58;1.80;;;0.82;;
23001;SDS011;11667;51.706;4.856;2024-03-29T00:41:27;2.72;;;1.25;;
23001;SDS011;11667;51.706;4.856;2024-03-29T00:43:56;2.02;;;0.68;;
23001;SDS011;11667;51.706;4.856;2024-03-29T00:46:25;3.22;;;1.22;;
23001;SDS011;11667;51.706;4.856;2024-03-29T00:48:55;6.22;;;1.72;;
23001;SDS011;11667;51.706;4.856;2024-03-29T00:51:24;2.85;;;0.75;;
23001;SDS011;11667;51.706;4.856;2024-03-29T00:53:55;1.40;;;1.05;;
23001;SDS011;11667;51.706;4.856;2024-03-29T00:56:24;2.60;;;1.22;;
23001;SDS011;11667;51.706;4.856;2024-03-29T00:58:53;1.37;;;0.90;;
23001;SDS011;11667;51.706;4.856;2024-03-29T01:01:22;3.25;;;1.30;;
23001;SDS011;11667;51.706;4.856;2024-03-29T01:03:52;3.40;;;0.85;;
23001;SDS011;11667;51.706;4.856;2024-03-29T01:06:21;2.50;;;1.02;;
23001;SDS011;11667;51.706;4.856;2024-03-29T01:08:50;4.65;;;1.32;;
23001;SDS011;11667;51.706;4.856;2024-03-29T01:11:20;5.22;;;1.00;;
23001;SDS011;11667;51.706;4.856;2024-03-29T01:13:49;2.50;;;1.00;;
23001;SDS011;11667;51.706;4.856;2024-03-29T01:16:18;5.28;;;1.20;;
23001;SDS011;11667;51.706;4.856;2024-03-29T01:18:47;5.15;;;0.95;;
23001;SDS011;11667;51.706;4.856;2024-03-29T01:21:17;3.45;;;0.85;;
23001;SDS011;11667;51.706;4.856;2024-03-29T01:23:46;5.90;;;1.35;;
23001;SDS011;11667;51.706;4.856;2024-03-29T01:26:16;2.20;;;0.75;;
23001;SDS011;11667;51.706;4.856;2024-03-29T01:28:46;4.47;;;1.50;;
23001;SDS011;11667;51.706;4.856;2024-03-29T01:31:15;2.50;;;1.35;;
23001;SDS011;11667;51.706;4.856;2024-03-29T01:33:44;2.85;;;1.10;;
23001;SDS011;11667;51.706;4.856;2024-03-29T01:36:13;3.15;;;0.98;;
23001;SDS011;11667;51.706;4.856;2024-03-29T01:38:43;3.40;;;0.85;;
23001;SDS011;11667;51.706;4.856;2024-03-29T01:41:14;4.60;;;1.25;;
23001;SDS011;11667;51.706;4.856;2024-03-29T01:43:43;3.52;;;1.00;;
23001;SDS011;11667;51.706;4.856;2024-03-29T01:46:12;2.85;;;1.07;;
23001;SDS011;11667;51.706;4.856;2024-03-29T01:48:42;2.72;;;1.25;;
23001;SDS011;11667;51.706;4.856;2024-03-29T01:51:11;4.85;;;1.22;;
23001;SDS011;11667;51.706;4.856;2024-03-29T01:53:42;3.45;;;0.93;;
23001;SDS011;11667;51.706;4.856;2024-03-29T01:56:12;2.80;;;1.00;;
23001;SDS011;11667;51.706;4.856;2024-03-29T01:58:43;1.35;;;0.95;;
23001;SDS011;11667;51.706;4.856;2024-03-29T02:01:13;2.92;;;0.80;;
23001;SDS011;11667;51.706;4.856;2024-03-29T02:03:42;1.92;;;0.53;;
23001;SDS011;11667;51.706;4.856;2024-03-29T02:06:12;5.92;;;1.60;;
23001;SDS011;11667;51.706;4.856;2024-03-29T02:08:41;1.65;;;0.90;;
23001;SDS011;11667;51.706;4.856;2024-03-29T02:11:10;3.25;;;1.10;;
23001;SDS011;11667;51.706;4.856;2024-03-29T02:13:40;3.52;;;1.00;;
23001;SDS011;11667;51.706;4.856;2024-03-29T02:16:09;2.65;;;0.85;;
23001;SDS011;11667;51.706;4.856;2024-03-29T02:18:38;1.40;;;0.53;;
23001;SDS011;11667;51.706;4.856;2024-03-29T02:21:07;6.22;;;1.67;;
23001;SDS011;11667;51.706;4.856;2024-03-29T02:23:37;1.37;;;0.95;;
23001;SDS011;11667;51.706;4.856;2024-03-29T02:26:10;3.90;;;1.10;;
23001;SDS011;11667;51.706;4.856;2024-03-29T02:28:39;3.35;;;1.12;;
23001;SDS011;11667;51.706;4.856;2024-03-29T02:31:09;5.58;;;1.17;;
23001;SDS011;11667;51.706;4.856;2024-03-29T02:33:38;2.67;;;0.80;;
23001;SDS011;11667;51.706;4.856;2024-03-29T02:36:07;5.28;;;1.10;;
23001;SDS011;11667;51.706;4.856;2024-03-29T02:38:38;3.83;;;0.88;;
23001;SDS011;11667;51.706;4.856;2024-03-29T02:41:07;3.20;;;1.30;;
23001;SDS011;11667;51.706;4.856;2024-03-29T02:43:37;3.70;;;1.05;;
23001;SDS011;11667;51.706;4.856;2024-03-29T02:46:06;1.98;;;0.82;;
23001;SDS011;11667;51.706;4.856;2024-03-29T02:48:35;3.87;;;1.40;;
23001;SDS011;11667;51.706;4.856;2024-03-29T02:51:04;1.82;;;0.98;;
23001;SDS011;11667;51.706;4.856;2024-03-29T02:53:34;2.95;;;0.90;;
23001;SDS011;11667;51.706;4.856;2024-03-29T02:56:03;2.05;;;1.17;;
23001;SDS011;11667;51.706;4.856;2024-03-29T02:58:35;1.27;;;0.70;;
23001;SDS011;11667;51.706;4.856;2024-03-29T03:01:05;6.92;;;1.22;;
23001;SDS011;11667;51.706;4.856;2024-03-29T03:03:36;2.55;;;0.80;;
23001;SDS011;11667;51.706;4.856;2024-03-29T03:06:06;1.57;;;0.50;;
23001;SDS011;11667;51.706;4.856;2024-03-29T03:08:35;1.90;;;1.05;;
23001;SDS011;11667;51.706;4.856;2024-03-29T03:11:22;3.05;;;0.78;;
23001;SDS011;11667;51.706;4.856;2024-03-29T03:13:51;3.42;;;0.80;;
23001;SDS011;11667;51.706;4.856;2024-03-29T03:16:20;1.92;;;0.85;;
23001;SDS011;11667;51.706;4.856;2024-03-29T03:18:50;2.77;;;0.75;;
23001;SDS011;11667;51.706;4.856;2024-03-29T03:21:19;7.90;;;1.10;;
23001;SDS011;11667;51.706;4.856;2024-03-29T03:23:48;4.65;;;1.22;;
23001;SDS011;11667;51.706;4.856;2024-03-29T03:26:17;1.32;;;0.55;;
23001;SDS011;11667;51.706;4.856;2024-03-29T03:28:47;3.17;;;1.10;;
23001;SDS011;11667;51.706;4.856;2024-03-29T03:31:16;1.92;;;0.57;;
23001;SDS011;11667;51.706;4.856;2024-03-29T03:33:45;1.05;;;0.90;;
23001;SDS011;11667;51.706;4.856;2024-03-29T03:36:15;2.10;;;1.00;;
23001;SDS011;11667;51.706;4.856;2024-03-29T03:38:44;1.80;;;0.72;;
23001;SDS011;11667;51.706;4.856;2024-03-29T03:41:13;1.47;;;0.50;;
23001;SDS011;11667;51.706;4.856;2024-03-29T03:43:42;3.92;;;0.95;;
23001;SDS011;11667;51.706;4.856;2024-03-29T03:46:12;1.17;;;0.70;;
23001;SDS011;11667;51.706;4.856;2024-03-29T03:48:41;2.40;;;0.70;;
23001;SDS011;11667;51.706;4.856;2024-03-29T03:51:10;0.72;;;0.57;;
23001;SDS011;11667;51.706;4.856;2024-03-29T03:53:39;2.37;;;0.50;;
23001;SDS011;11667;51.706;4.856;2024-03-29T03:56:10;0.13;;;0.13;;
23001;SDS011;11667;51.706;4.856;2024-03-29T03:58:39;1.27;;;0.70;;
23001;SDS011;11667;51.706;4.856;2024-03-29T04:01:08;1.00;;;0.50;;
23001;SDS011;11667;51.706;4.856;2024-03-29T04:03:38;0.93;;;0.60;;
23001;SDS011;11667;51.706;4.856;2024-03-29T04:06:07;1.40;;;0.80;;
23001;SDS011;11667;51.706;4.856;2024-03-29T04:08:36;1.10;;;0.60;;
23001;SDS011;11667;51.706;4.856;2024-03-29T04:11:06;1.65;;;0.60;;
23001;SDS011;11667;51.706;4.856;2024-03-29T04:13:35;1.67;;;0.65;;
23001;SDS011;11667;51.706;4.856;2024-03-29T04:16:06;0.53;;;0.47;;
23001;SDS011;11667;51.706;4.856;2024-03-29T04:18:36;1.82;;;0.88;;
23001;SDS011;11667;51.706;4.856;2024-03-29T04:21:05;0.93;;;0.68;;
23001;SDS011;11667;51.706;4.856;2024-03-29T04:23:34;2.65;;;0.85;;
23001;SDS011;11667;51.706;4.856;2024-03-29T04:26:04;1.35;;;0.62;;
23001;SDS011;11667;51.706;4.856;2024-03-29T04:28:33;2.17;;;1.02;;
23001;SDS011;11667;51.706;4.856;2024-03-29T04:31:02;1.42;;;0.55;;
23001;SDS011;11667;51.706;4.856;2024-03-29T04:33:31;0.55;;;0.53;;
23001;SDS011;11667;51.706;4.856;2024-03-29T04:36:01;1.47;;;0.50;;
23001;SDS011;11667;51.706;4.856;2024-03-29T04:38:31;0.98;;;0.80;;
23001;SDS011;11667;51.706;4.856;2024-03-29T04:41:00;1.75;;;0.68;;
23001;SDS011;11667;51.706;4.856;2024-03-29T04:43:30;0.60;;;0.42;;
23001;SDS011;11667;51.706;4.856;2024-03-29T04:46:03;3.65;;;0.80;;
23001;SDS011;11667;51.706;4.856;2024-03-29T04:48:40;3.40;;;0.70;;
23001;SDS011;11667;51.706;4.856;2024-03-29T04:51:10;0.33;;;0.30;;
23001;SDS011;11667;51.706;4.856;2024-03-29T04:53:39;1.77;;;0.98;;
23001;SDS011;11667;51.706;4.856;2024-03-29T04:56:09;1.80;;;0.62;;
23001;SDS011;11667;51.706;4.856;2024-03-29T04:58:38;0.53;;;0.53;;
23001;SDS011;11667;51.706;4.856;2024-03-29T05:01:07;0.90;;;0.68;;
23001;SDS011;11667;51.706;4.856;2024-03-29T05:03:37;1.37;;;0.72;;
23001;SDS011;11667;51.706;4.856;2024-03-29T05:06:06;2.87;;;0.95;;
23001;SDS011;11667;51.706;4.856;2024-03-29T05:08:35;2.05;;;1.22;;
23001;SDS011;11667;51.706;4.856;2024-03-29T05:11:04;2.33;;;0.60;;
23001;SDS011;11667;51.706;4.856;2024-03-29T05:13:35;1.52;;;0.68;;
23001;SDS011;11667;51.706;4.856;2024-03-29T05:16:05;1.37;;;0.62;;
23001;SDS011;11667;51.706;4.856;2024-03-29T05:18:35;0.50;;;0.50;;
23001;SDS011;11667;51.706;4.856;2024-03-29T05:21:04;3.87;;;0.62;;
23001;SDS011;11667;51.706;4.856;2024-03-29T05:23:33;1.15;;;0.62;;
23001;SDS011;11667;51.706;4.856;2024-03-29T05:26:03;0.98;;;0.72;;
23001;SDS011;11667;51.706;4.856;2024-03-29T05:28:32;1.65;;;0.80;;
23001;SDS011;11667;51.706;4.856;2024-03-29T05:31:10;2.87;;;0.72;;
23001;SDS011;11667;51.706;4.856;2024-03-29T05:33:36;1.62;;;0.80;;
23001;SDS011;11667;51.706;4.856;2024-03-29T05:36:05;2.55;;;0.72;;
23001;SDS011;11667;51.706;4.856;2024-03-29T05:38:36;1.90;;;0.90;;
23001;SDS011;11667;51.706;4.856;2024-03-29T05:41:05;1.62;;;1.10;;
23001;SDS011;11667;51.706;4.856;2024-03-29T05:43:35;1.40;;;0.95;;
23001;SDS011;11667;51.706;4.856;2024-03-29T05:46:04;2.40;;;0.95;;
23001;SDS011;11667;51.706;4.856;2024-03-29T05:48:33;1.67;;;0.85;;
23001;SDS011;11667;51.706;4.856;2024-03-29T05:51:03;1.00;;;0.75;;
23001;SDS011;11667;51.706;4.856;2024-03-29T05:53:32;2.35;;;1.15;;
23001;SDS011;11667;51.706;4.856;2024-03-29T05:56:02;1.55;;;0.70;;
23001;SDS011;11667;51.706;4.856;2024-03-29T05:58:32;1.72;;;0.90;;
23001;SDS011;11667;51.706;4.856;2024-03-29T06:01:02;0.80;;;0.57;;
23001;SDS011;11667;51.706;4.856;2024-03-29T06:03:31;1.80;;;0.80;;
23001;SDS011;11667;51.706;4.856;2024-03-29T06:06:00;2.52;;;0.90;;
23001;SDS011;11667;51.706;4.856;2024-03-29T06:08:30;1.75;;;1.02;;
23001;SDS011;11667;51.706;4.856;2024-03-29T06:10:59;1.75;;;1.00;;
23001;SDS011;11667;51.706;4.856;2024-03-29T06:13:28;1.52;;;0.80;;
23001;SDS011;11667;51.706;4.856;2024-03-29T06:15:59;1.32;;;0.75;;
23001;SDS011;11667;51.706;4.856;2024-03-29T06:21:47;2.87;;;1.20;;
23001;SDS011;11667;51.706;4.856;2024-03-29T06:24:16;1.85;;;0.85;;
23001;SDS011;11667;51.706;4.856;2024-03-29T06:26:45;2.70;;;0.90;;
23001;SDS011;11667;51.706;4.856;2024-03-29T06:29:15;1.27;;;0.93;;
23001;SDS011;11667;51.706;4.856;2024-03-29T06:31:44;3.35;;;0.93;;
23001;SDS011;11667;51.706;4.856;2024-03-29T06:34:13;2.92;;;1.20;;
23001;SDS011;11667;51.706;4.856;2024-03-29T06:36:42;2.25;;;1.02;;
23001;SDS011;11667;51.706;4.856;2024-03-29T06:39:12;1.57;;;0.88;;
23001;SDS011;11667;51.706;4.856;2024-03-29T06:41:41;2.40;;;1.02;;
23001;SDS011;11667;51.706;4.856;2024-03-29T06:44:10;2.42;;;0.65;;
23001;SDS011;11667;51.706;4.856;2024-03-29T06:46:40;1.20;;;0.82;;
23001;SDS011;11667;51.706;4.856;2024-03-29T06:49:09;1.52;;;1.00;;
23001;SDS011;11667;51.706;4.856;2024-03-29T06:51:38;1.52;;;0.70;;
23001;SDS011;11667;51.706;4.856;2024-03-29T06:54:08;1.60;;;1.07;;
23001;SDS011;11667;51.706;4.856;2024-03-29T06:56:37;1.05;;;0.70;;
23001;SDS011;11667;51.706;4.856;2024-03-29T06:59:07;1.45;;;0.72;;
23001;SDS011;11667;51.706;4.856;2024-03-29T07:01:36;1.05;;;0.70;;
23001;SDS011;11667;51.706;4.856;2024-03-29T07:04:05;1.60;;;0.90;;
23001;SDS011;11667;51.706;4.856;2024-03-29T07:06:34;3.45;;;1.10;;
23001;SDS011;11667;51.706;4.856;2024-03-29T07:09:05;1.30;;;0.98;;
23001;SDS011;11667;51.706;4.856;2024-03-29T07:11:35;3.65;;;1.00;;
23001;SDS011;11667;51.706;4.856;2024-03-29T07:14:04;0.65;;;0.60;;
23001;SDS011;11667;51.706;4.856;2024-03-29T07:16:33;1.62;;;0.88;;
23001;SDS011;11667;51.706;4.856;2024-03-29T07:19:03;1.35;;;0.98;;
23001;SDS011;11667;51.706;4.856;2024-03-29T07:21:32;0.75;;;0.50;;
23001;SDS011;11667;51.706;4.856;2024-03-29T07:24:02;1.40;;;0.75;;
23001;SDS011;11667;51.706;4.856;2024-03-29T07:26:31;2.70;;;1.30;;
23001;SDS011;11667;51.706;4.856;2024-03-29T07:29:01;0.68;;;0.60;;
23001;SDS011;11667;51.706;4.856;2024-03-29T07:31:35;1.87;;;1.02;;
23001;SDS011;11667;51.706;4.856;2024-03-29T07:34:04;0.70;;;0.70;;
23001;SDS011;11667;51.706;4.856;2024-03-29T07:36:33;1.70;;;0.82;;
23001;SDS011;11667;51.706;4.856;2024-03-29T07:39:03;1.57;;;0.90;;
23001;SDS011;11667;51.706;4.856;2024-03-29T07:41:32;3.15;;;0.93;;
23001;SDS011;11667;51.706;4.856;2024-03-29T07:44:01;1.12;;;0.75;;
23001;SDS011;11667;51.706;4.856;2024-03-29T07:46:34;2.20;;;0.42;;
23001;SDS011;11667;51.706;4.856;2024-03-29T07:49:07;0.80;;;0.70;;
23001;SDS011;11667;51.706;4.856;2024-03-29T07:51:38;1.17;;;0.68;;
23001;SDS011;11667;51.706;4.856;2024-03-29T07:54:07;1.67;;;0.47;;
23001;SDS011;11667;51.706;4.856;2024-03-29T07:56:37;2.10;;;0.80;;
23001;SDS011;11667;51.706;4.856;2024-03-29T07:59:06;2.65;;;1.02;;
23001;SDS011;11667;51.706;4.856;2024-03-29T08:01:35;2.40;;;0.70;;
23001;SDS011;11667;51.706;4.856;2024-03-29T08:04:06;1.20;;;0.90;;
23001;SDS011;11667;51.706;4.856;2024-03-29T08:06:36;1.75;;;0.80;;
23001;SDS011;11667;51.706;4.856;2024-03-29T08:09:05;1.60;;;0.82;;
23001;SDS011;11667;51.706;4.856;2024-03-29T08:11:34;0.93;;;0.72;;
23001;SDS011;11667;51.706;4.856;2024-03-29T08:14:03;1.05;;;0.75;;
23001;SDS011;11667;51.706;4.856;2024-03-29T08:16:33;2.70;;;0.90;;
23001;SDS011;11667;51.706;4.856;2024-03-29T08:19:02;2.27;;;0.90;;
23001;SDS011;11667;51.706;4.856;2024-03-29T08:21:32;2.25;;;0.80;;
23001;SDS011;11667;51.706;4.856;2024-03-29T08:24:01;1.32;;;0.88;;
23001;SDS011;11667;51.706;4.856;2024-03-29T08:26:31;1.30;;;0.85;;
23001;SDS011;11667;51.706;4.856;2024-03-29T08:29:02;3.52;;;1.02;;
23001;SDS011;11667;51.706;4.856;2024-03-29T08:31:31;1.40;;;1.00;;
23001;SDS011;11667;51.706;4.856;2024-03-29T08:34:00;1.55;;;0.90;;
23001;SDS011;11667;51.706;4.856;2024-03-29T08:36:30;0.70;;;0.70;;
23001;SDS011;11667;51.706;4.856;2024-03-29T08:38:59;1.80;;;0.95;;
23001;SDS011;11667;51.706;4.856;2024-03-29T08:41:28;2.47;;;1.20;;
23001;SDS011;11667;51.706;4.856;2024-03-29T08:43:57;2.25;;;1.05;;
23001;SDS011;11667;51.706;4.856;2024-03-29T08:46:27;1.87;;;1.35;;
23001;SDS011;11667;51.706;4.856;2024-03-29T08:48:56;3.37;;;1.27;;
23001;SDS011;11667;51.706;4.856;2024-03-29T08:51:25;3.35;;;1.00;;
23001;SDS011;11667;51.706;4.856;2024-03-29T08:53:54;2.22;;;1.07;;
23001;SDS011;11667;51.706;4.856;2024-03-29T08:56:25;1.90;;;1.10;;
23001;SDS011;11667;51.706;4.856;2024-03-29T08:58:54;2.72;;;0.95;;
23001;SDS011;11667;51.706;4.856;2024-03-29T09:01:25;2.42;;;1.00;;
23001;SDS011;11667;51.706;4.856;2024-03-29T09:03:55;2.83;;;0.90;;
23001;SDS011;11667;51.706;4.856;2024-03-29T09:06:24;2.05;;;1.17;;
23001;SDS011;11667;51.706;4.856;2024-03-29T09:08:54;2.00;;;0.85;;
23001;SDS011;11667;51.706;4.856;2024-03-29T09:11:23;1.60;;;1.00;;
23001;SDS011;11667;51.706;4.856;2024-03-29T09:13:52;1.32;;;0.98;;
23001;SDS011;11667;51.706;4.856;2024-03-29T09:16:23;3.30;;;1.32;;
23001;SDS011;11667;51.706;4.856;2024-03-29T09:18:56;3.17;;;1.62;;
23001;SDS011;11667;51.706;4.856;2024-03-29T09:21:26;2.70;;;1.20;;
23001;SDS011;11667;51.706;4.856;2024-03-29T09:23:56;2.47;;;1.45;;
23001;SDS011;11667;51.706;4.856;2024-03-29T09:26:25;3.50;;;1.17;;
23001;SDS011;11667;51.706;4.856;2024-03-29T09:28:54;2.92;;;1.77;;
23001;SDS011;11667;51.706;4.856;2024-03-29T09:31:24;2.37;;;1.40;;
23001;SDS011;11667;51.706;4.856;2024-03-29T09:33:53;2.47;;;1.70;;
23001;SDS011;11667;51.706;4.856;2024-03-29T09:36:24;3.67;;;1.45;;
23001;SDS011;11667;51.706;4.856;2024-03-29T09:38:53;4.35;;;1.50;;
23001;SDS011;11667;51.706;4.856;2024-03-29T09:41:23;3.70;;;1.50;;
23001;SDS011;11667;51.706;4.856;2024-03-29T09:43:55;3.17;;;1.32;;
23001;SDS011;11667;51.706;4.856;2024-03-29T09:46:26;4.70;;;1.87;;
23001;SDS011;11667;51.706;4.856;2024-03-29T09:48:57;2.47;;;1.52;;
23001;SDS011;11667;51.706;4.856;2024-03-29T09:51:26;3.00;;;1.40;;
23001;SDS011;11667;51.706;4.856;2024-03-29T09:53:56;4.05;;;1.50;;
23001;SDS011;11667;51.706;4.856;2024-03-29T09:56:27;2.95;;;1.50;;
23001;SDS011;11667;51.706;4.856;2024-03-29T09:58:57;2.50;;;1.20;;
23001;SDS011;11667;51.706;4.856;2024-03-29T10:01:26;3.37;;;1.60;;
23001;SDS011;11667;51.706;4.856;2024-03-29T10:03:56;2.35;;;1.42;;
23001;SDS011;11667;51.706;4.856;2024-03-29T10:06:25;3.02;;;1.42;;
23001;SDS011;11667;51.706;4.856;2024-03-29T10:08:55;5.42;;;2.00;;
23001;SDS011;11667;51.706;4.856;2024-03-29T10:11:25;8.40;;;1.40;;
23001;SDS011;11667;51.706;4.856;2024-03-29T10:13:55;2.70;;;1.35;;
23001;SDS011;11667;51.706;4.856;2024-03-29T10:16:24;3.77;;;1.57;;
23001;SDS011;11667;51.706;4.856;2024-03-29T10:18:53;3.55;;;1.30;;
23001;SDS011;11667;51.706;4.856;2024-03-29T10:21:25;4.50;;;1.37;;
23001;SDS011;11667;51.706;4.856;2024-03-29T10:23:55;2.55;;;1.12;;
23001;SDS011;11667;51.706;4.856;2024-03-29T10:26:24;2.37;;;1.20;;
23001;SDS011;11667;51.706;4.856;2024-03-29T10:28:54;2.27;;;1.40;;
23001;SDS011;11667;51.706;4.856;2024-03-29T10:31:23;2.45;;;1.15;;
23001;SDS011;11667;51.706;4.856;2024-03-29T10:33:52;2.37;;;1.27;;
23001;SDS011;11667;51.706;4.856;2024-03-29T10:36:22;2.12;;;1.10;;
23001;SDS011;11667;51.706;4.856;2024-03-29T10:38:53;3.22;;;1.25;;
23001;SDS011;11667;51.706;4.856;2024-03-29T10:41:23;4.37;;;1.15;;
23001;SDS011;11667;51.706;4.856;2024-03-29T10:43:53;1.75;;;1.22;;
23001;SDS011;11667;51.706;4.856;2024-03-29T10:46:23;3.20;;;1.80;;
23001;SDS011;11667;51.706;4.856;2024-03-29T10:48:54;6.28;;;1.70;;
23001;SDS011;11667;51.706;4.856;2024-03-29T10:51:23;4.25;;;1.60;;
23001;SDS011;11667;51.706;4.856;2024-03-29T10:53:52;3.65;;;1.70;;
23001;SDS011;11667;51.706;4.856;2024-03-29T10:56:22;3.83;;;1.52;;
23001;SDS011;11667;51.706;4.856;2024-03-29T10:58:52;2.65;;;1.70;;
23001;SDS011;11667;51.706;4.856;2024-03-29T11:01:23;1.75;;;1.50;;
23001;SDS011;11667;51.706;4.856;2024-03-29T11:03:56;4.42;;;1.60;;
23001;SDS011;11667;51.706;4.856;2024-03-29T11:06:27;3.05;;;1.95;;
23001;SDS011;11667;51.706;4.856;2024-03-29T11:08:57;3.42;;;1.85;;
23001;SDS011;11667;51.706;4.856;2024-03-29T11:11:28;3.20;;;2.30;;
23001;SDS011;11667;51.706;4.856;2024-03-29T11:14:09;2.30;;;1.90;;
23001;SDS011;11667;51.706;4.856;2024-03-29T11:16:40;4.83;;;2.30;;
23001;SDS011;11667;51.706;4.856;2024-03-29T11:19:12;3.55;;;2.52;;
23001;SDS011;11667;51.706;4.856;2024-03-29T11:21:42;3.37;;;2.62;;
23001;SDS011;11667;51.706;4.856;2024-03-29T11:24:13;3.55;;;2.75;;
23001;SDS011;11667;51.706;4.856;2024-03-29T11:26:47;4.12;;;2.30;;
23001;SDS011;11667;51.706;4.856;2024-03-29T11:29:22;3.75;;;2.17;;
23001;SDS011;11667;51.706;4.856;2024-03-29T11:31:57;5.22;;;3.12;;
23001;SDS011;11667;51.706;4.856;2024-03-29T11:34:30;4.60;;;2.52;;
23001;SDS011;11667;51.706;4.856;2024-03-29T11:37:07;3.87;;;2.30;;
23001;SDS011;11667;51.706;4.856;2024-03-29T11:39:37;3.58;;;2.22;;
23001;SDS011;11667;51.706;4.856;2024-03-29T11:42:08;3.85;;;2.58;;
23001;SDS011;11667;51.706;4.856;2024-03-29T11:44:39;3.77;;;2.70;;
23001;SDS011;11667;51.706;4.856;2024-03-29T11:47:08;5.22;;;2.30;;
23001;SDS011;11667;51.706;4.856;2024-03-29T11:49:38;3.87;;;2.65;;
23001;SDS011;11667;51.706;4.856;2024-03-29T11:52:07;3.35;;;2.60;;
23001;SDS011;11667;51.706;4.856;2024-03-29T11:54:38;3.90;;;2.40;;
23001;SDS011;11667;51.706;4.856;2024-03-29T11:57:08;2.80;;;2.10;;
23001;SDS011;11667;51.706;4.856;2024-03-29T11:59:37;2.80;;;2.33;;
23001;SDS011;11667;51.706;4.856;2024-03-29T12:02:08;2.87;;;2.22;;
23001;SDS011;11667;51.706;4.856;2024-03-29T12:04:39;3.87;;;2.58;;
23001;SDS011;11667;51.706;4.856;2024-03-29T12:07:11;5.67;;;2.52;;
23001;SDS011;11667;51.706;4.856;2024-03-29T12:09:41;2.83;;;2.27;;
23001;SDS011;11667;51.706;4.856;2024-03-29T12:12:10;3.50;;;2.33;;
23001;SDS011;11667;51.706;4.856;2024-03-29T12:14:39;3.95;;;2.50;;
23001;SDS011;11667;51.706;4.856;2024-03-29T12:17:09;3.70;;;2.30;;
23001;SDS011;11667;51.706;4.856;2024-03-29T12:19:39;6.17;;;2.50;;
23001;SDS011;11667;51.706;4.856;2024-03-29T12:22:09;3.55;;;2.50;;
23001;SDS011;11667;51.706;4.856;2024-03-29T12:24:39;4.72;;;2.47;;
23001;SDS011;11667;51.706;4.856;2024-03-29T12:27:08;3.98;;;2.52;;
23001;SDS011;11667;51.706;4.856;2024-03-29T12:29:37;8.90;;;3.42;;
23001;SDS011;11667;51.706;4.856;2024-03-29T12:32:07;7.67;;;2.70;;
23001;SDS011;11667;51.706;4.856;2024-03-29T12:34:37;3.60;;;2.00;;
23001;SDS011;11667;51.706;4.856;2024-03-29T12:37:08;4.50;;;2.60;;
23001;SDS011;11667;51.706;4.856;2024-03-29T12:39:40;2.92;;;1.80;;
23001;SDS011;11667;51.706;4.856;2024-03-29T12:42:13;2.72;;;2.00;;
23001;SDS011;11667;51.706;4.856;2024-03-29T12:44:42;3.10;;;2.10;;
23001;SDS011;11667;51.706;4.856;2024-03-29T12:47:12;3.58;;;2.22;;
23001;SDS011;11667;51.706;4.856;2024-03-29T12:49:41;5.15;;;2.45;;
23001;SDS011;11667;51.706;4.856;2024-03-29T12:52:11;3.00;;;2.30;;
23001;SDS011;11667;51.706;4.856;2024-03-29T12:54:40;4.15;;;2.42;;
23001;SDS011;11667;51.706;4.856;2024-03-29T12:57:09;3.62;;;2.30;;
23001;SDS011;11667;51.706;4.856;2024-03-29T12:59:39;2.42;;;1.98;;
23001;SDS011;11667;51.706;4.856;2024-03-29T13:02:08;2.87;;;1.82;;
23001;SDS011;11667;51.706;4.856;2024-03-29T13:04:37;3.27;;;2.10;;
23001;SDS011;11667;51.706;4.856;2024-03-29T13:07:08;2.12;;;1.67;;
23001;SDS011;11667;51.706;4.856;2024-03-29T13:09:39;12.28;;;2.47;;
23001;SDS011;11667;51.706;4.856;2024-03-29T13:12:08;9.03;;;2.52;;
23001;SDS011;11667;51.706;4.856;2024-03-29T13:14:39;9.53;;;2.40;;
23001;SDS011;11667;51.706;4.856;2024-03-29T13:17:09;2.65;;;1.50;;
23001;SDS011;11667;51.706;4.856;2024-03-29T13:19:38;3.02;;;1.40;;
23001;SDS011;11667;51.706;4.856;2024-03-29T13:22:07;2.70;;;1.50;;
23001;SDS011;11667;51.706;4.856;2024-03-29T13:24:36;7.75;;;1.92;;
23001;SDS011;11667;51.706;4.856;2024-03-29T13:27:06;13.88;;;2.37;;
23001;SDS011;11667;51.706;4.856;2024-03-29T13:29:35;4.00;;;1.52;;
23001;SDS011;11667;51.706;4.856;2024-03-29T13:32:04;2.83;;;1.10;;
23001;SDS011;11667;51.706;4.856;2024-03-29T13:34:34;5.35;;;1.45;;
23001;SDS011;11667;51.706;4.856;2024-03-29T13:37:04;4.20;;;1.55;;
23001;SDS011;11667;51.706;4.856;2024-03-29T13:39:33;1.67;;;1.30;;
23001;SDS011;11667;51.706;4.856;2024-03-29T13:42:03;2.17;;;1.30;;
23001;SDS011;11667;51.706;4.856;2024-03-29T13:44:32;2.30;;;1.25;;
23001;SDS011;11667;51.706;4.856;2024-03-29T13:47:02;1.75;;;1.22;;
23001;SDS011;11667;51.706;4.856;2024-03-29T13:49:31;1.30;;;1.05;;
23001;SDS011;11667;51.706;4.856;2024-03-29T13:52:00;2.83;;;1.30;;
23001;SDS011;11667;51.706;4.856;2024-03-29T13:54:30;2.22;;;1.10;;
23001;SDS011;11667;51.706;4.856;2024-03-29T13:57:01;1.45;;;1.20;;
23001;SDS011;11667;51.706;4.856;2024-03-29T13:59:32;1.47;;;1.10;;
23001;SDS011;11667;51.706;4.856;2024-03-29T14:02:01;1.65;;;1.05;;
23001;SDS011;11667;51.706;4.856;2024-03-29T14:04:31;2.87;;;1.47;;
23001;SDS011;11667;51.706;4.856;2024-03-29T14:07:00;2.20;;;1.30;;
23001;SDS011;11667;51.706;4.856;2024-03-29T14:09:31;1.35;;;1.00;;
23001;SDS011;11667;51.706;4.856;2024-03-29T14:12:00;1.90;;;0.90;;
23001;SDS011;11667;51.706;4.856;2024-03-29T14:14:30;2.80;;;1.15;;
23001;SDS011;11667;51.706;4.856;2024-03-29T14:17:00;3.12;;;1.40;;
23001;SDS011;11667;51.706;4.856;2024-03-29T14:19:34;1.50;;;1.02;;
23001;SDS011;11667;51.706;4.856;2024-03-29T14:22:04;1.85;;;1.10;;
23001;SDS011;11667;51.706;4.856;2024-03-29T14:24:34;2.30;;;0.98;;
23001;SDS011;11667;51.706;4.856;2024-03-29T14:27:03;1.57;;;0.95;;
23001;SDS011;11667;51.706;4.856;2024-03-29T14:29:33;1.55;;;1.10;;
23001;SDS011;11667;51.706;4.856;2024-03-29T14:32:02;1.47;;;1.10;;
23001;SDS011;11667;51.706;4.856;2024-03-29T14:34:32;3.17;;;1.42;;
23001;SDS011;11667;51.706;4.856;2024-03-29T14:37:03;1.47;;;0.90;;
23001;SDS011;11667;51.706;4.856;2024-03-29T14:39:33;2.67;;;1.02;;
23001;SDS011;11667;51.706;4.856;2024-03-29T14:42:02;1.70;;;0.90;;
23001;SDS011;11667;51.706;4.856;2024-03-29T14:44:33;3.15;;;1.10;;
23001;SDS011;11667;51.706;4.856;2024-03-29T14:47:02;1.85;;;1.00;;
23001;SDS011;11667;51.706;4.856;2024-03-29T14:49:33;2.05;;;1.15;;
23001;SDS011;11667;51.706;4.856;2024-03-29T14:52:02;1.10;;;0.90;;
23001;SDS011;11667;51.706;4.856;2024-03-29T14:54:32;1.32;;;1.02;;
23001;SDS011;11667;51.706;4.856;2024-03-29T14:57:01;2.17;;;1.27;;
23001;SDS011;11667;51.706;4.856;2024-03-29T14:59:31;1.07;;;0.75;;
23001;SDS011;11667;51.706;4.856;2024-03-29T15:02:00;1.32;;;1.00;;
23001;SDS011;11667;51.706;4.856;2024-03-29T15:04:29;2.27;;;0.93;;
23001;SDS011;11667;51.706;4.856;2024-03-29T15:06:59;1.77;;;0.85;;